sensor_id;sensor_type;location;lat;lon;timestamp;P1;durP1;ratioP1;P2;durP2;ratioP2
52180;SDS011;38158;53.338;6.514;2023-04-06T00:01:27;16.60;;;9.60;;
52180;SDS011;38158;53.338;6.514;2023-04-06T00:03:53;14.05;;;8.60;;
52180;SDS011;38158;53.338;6.514;2023-04-06T00:06:18;15.73;;;9.20;;
52180;SDS011;38158;53.338;6.514;2023-04-06T00:08:45;11.77;;;8.97;;
52180;SDS011;38158;53.338;6.514;2023-04-06T00:11:10;14.10;;;8.90;;
52180;SDS011;38158;53.338;6.514;2023-04-06T00:13:36;15.82;;;9.02;;
52180;SDS011;38158;53.338;6.514;2023-04-06T00:16:02;13.98;;;9.25;;
52180;SDS011;38158;53.338;6.514;2023-04-06T00:18:30;14.60;;;9.00;;
52180;SDS011;38158;53.338;6.514;2023-04-06T00:20:55;16.25;;;9.13;;
52180;SDS011;38158;53.338;6.514;2023-04-06T00:23:21;13.65;;;9.35;;
52180;SDS011;38158;53.338;6.514;2023-04-06T00:25:47;16.05;;;9.60;;
52180;SDS011;38158;53.338;6.514;2023-04-06T00:28:13;14.98;;;9.90;;
52180;SDS011;38158;53.338;6.514;2023-04-06T00:30:39;13.60;;;8.82;;
52180;SDS011;38158;53.338;6.514;2023-04-06T00:33:05;15.55;;;9.90;;
52180;SDS011;38158;53.338;6.514;2023-04-06T00:35:31;15.27;;;9.63;;
52180;SDS011;38158;53.338;6.514;2023-04-06T00:37:57;14.95;;;9.98;;
52180;SDS011;38158;53.338;6.514;2023-04-06T00:40:23;14.07;;;9.80;;
52180;SDS011;38158;53.338;6.514;2023-04-06T00:42:49;15.07;;;9.80;;
52180;SDS011;38158;53.338;6.514;2023-04-06T00:45:15;13.48;;;9.45;;
52180;SDS011;38158;53.338;6.514;2023-04-06T00:47:41;16.20;;;10.35;;
52180;SDS011;38158;53.338;6.514;2023-04-06T00:50:07;12.77;;;9.60;;
52180;SDS011;38158;53.338;6.514;2023-04-06T00:52:33;13.75;;;9.43;;
52180;SDS011;38158;53.338;6.514;2023-04-06T00:55:00;15.18;;;9.45;;
52180;SDS011;38158;53.338;6.514;2023-04-06T00:57:26;14.38;;;9.35;;
52180;SDS011;38158;53.338;6.514;2023-04-06T00:59:52;14.65;;;9.85;;
52180;SDS011;38158;53.338;6.514;2023-04-06T01:02:18;13.10;;;8.82;;
52180;SDS011;38158;53.338;6.514;2023-04-06T01:04:44;15.48;;;11.13;;
52180;SDS011;38158;53.338;6.514;2023-04-06T01:07:10;15.90;;;10.05;;
52180;SDS011;38158;53.338;6.514;2023-04-06T01:09:36;16.05;;;9.88;;
52180;SDS011;38158;53.338;6.514;2023-04-06T01:12:02;15.07;;;10.48;;
52180;SDS011;38158;53.338;6.514;2023-04-06T01:14:28;14.15;;;9.93;;
52180;SDS011;38158;53.338;6.514;2023-04-06T01:16:54;14.48;;;10.13;;
52180;SDS011;38158;53.338;6.514;2023-04-06T01:19:22;13.48;;;9.82;;
52180;SDS011;38158;53.338;6.514;2023-04-06T01:21:48;16.75;;;10.23;;
52180;SDS011;38158;53.338;6.514;2023-04-06T01:24:15;15.30;;;9.90;;
52180;SDS011;38158;53.338;6.514;2023-04-06T01:26:41;15.98;;;10.75;;
52180;SDS011;38158;53.338;6.514;2023-04-06T01:29:08;17.50;;;10.75;;
52180;SDS011;38158;53.338;6.514;2023-04-06T01:31:33;16.85;;;10.88;;
52180;SDS011;38158;53.338;6.514;2023-04-06T01:33:59;15.02;;;10.68;;
52180;SDS011;38158;53.338;6.514;2023-04-06T01:36:25;13.98;;;10.35;;
52180;SDS011;38158;53.338;6.514;2023-04-06T01:38:51;17.55;;;10.68;;
52180;SDS011;38158;53.338;6.514;2023-04-06T01:41:17;17.95;;;11.05;;
52180;SDS011;38158;53.338;6.514;2023-04-06T01:43:43;17.02;;;11.23;;
52180;SDS011;38158;53.338;6.514;2023-04-06T01:48:35;17.73;;;11.43;;
52180;SDS011;38158;53.338;6.514;2023-04-06T01:51:01;16.58;;;11.77;;
52180;SDS011;38158;53.338;6.514;2023-04-06T01:53:27;15.27;;;11.38;;
52180;SDS011;38158;53.338;6.514;2023-04-06T01:55:52;18.73;;;11.45;;
52180;SDS011;38158;53.338;6.514;2023-04-06T01:58:18;14.68;;;11.02;;
52180;SDS011;38158;53.338;6.514;2023-04-06T02:00:44;15.70;;;11.57;;
52180;SDS011;38158;53.338;6.514;2023-04-06T02:03:09;17.50;;;12.35;;
52180;SDS011;38158;53.338;6.514;2023-04-06T02:05:35;18.90;;;11.80;;
52180;SDS011;38158;53.338;6.514;2023-04-06T02:10:32;17.30;;;11.68;;
52180;SDS011;38158;53.338;6.514;2023-04-06T02:12:58;16.20;;;11.97;;
52180;SDS011;38158;53.338;6.514;2023-04-06T02:15:24;15.80;;;11.35;;
52180;SDS011;38158;53.338;6.514;2023-04-06T02:17:50;19.30;;;11.60;;
52180;SDS011;38158;53.338;6.514;2023-04-06T02:20:16;15.97;;;11.77;;
52180;SDS011;38158;53.338;6.514;2023-04-06T02:22:42;17.52;;;12.02;;
52180;SDS011;38158;53.338;6.514;2023-04-06T02:25:08;19.92;;;12.25;;
52180;SDS011;38158;53.338;6.514;2023-04-06T02:27:34;17.23;;;12.45;;
52180;SDS011;38158;53.338;6.514;2023-04-06T02:30:01;19.67;;;12.98;;
52180;SDS011;38158;53.338;6.514;2023-04-06T02:32:27;16.43;;;11.73;;
52180;SDS011;38158;53.338;6.514;2023-04-06T02:34:53;17.63;;;12.35;;
52180;SDS011;38158;53.338;6.514;2023-04-06T02:37:19;19.05;;;11.93;;
52180;SDS011;38158;53.338;6.514;2023-04-06T02:39:45;19.05;;;12.90;;
52180;SDS011;38158;53.338;6.514;2023-04-06T02:42:11;21.10;;;13.25;;
52180;SDS011;38158;53.338;6.514;2023-04-06T02:44:37;17.77;;;13.00;;
52180;SDS011;38158;53.338;6.514;2023-04-06T02:47:02;19.30;;;13.45;;
52180;SDS011;38158;53.338;6.514;2023-04-06T02:49:28;17.92;;;12.77;;
52180;SDS011;38158;53.338;6.514;2023-04-06T02:51:54;19.65;;;12.85;;
52180;SDS011;38158;53.338;6.514;2023-04-06T02:54:19;18.27;;;12.35;;
52180;SDS011;38158;53.338;6.514;2023-04-06T02:56:45;16.33;;;11.75;;
52180;SDS011;38158;53.338;6.514;2023-04-06T02:59:12;17.60;;;12.80;;
52180;SDS011;38158;53.338;6.514;2023-04-06T03:01:37;17.63;;;13.02;;
52180;SDS011;38158;53.338;6.514;2023-04-06T03:04:03;19.02;;;12.60;;
52180;SDS011;38158;53.338;6.514;2023-04-06T03:06:28;15.90;;;11.77;;
52180;SDS011;38158;53.338;6.514;2023-04-06T03:08:55;17.65;;;12.45;;
52180;SDS011;38158;53.338;6.514;2023-04-06T03:11:21;17.48;;;12.88;;
52180;SDS011;38158;53.338;6.514;2023-04-06T03:13:46;19.52;;;12.90;;
52180;SDS011;38158;53.338;6.514;2023-04-06T03:16:12;17.92;;;13.35;;
52180;SDS011;38158;53.338;6.514;2023-04-06T03:18:37;17.05;;;12.93;;
52180;SDS011;38158;53.338;6.514;2023-04-06T03:21:03;19.45;;;13.07;;
52180;SDS011;38158;53.338;6.514;2023-04-06T03:23:29;21.15;;;13.45;;
52180;SDS011;38158;53.338;6.514;2023-04-06T03:25:55;17.98;;;13.25;;
52180;SDS011;38158;53.338;6.514;2023-04-06T03:28:20;18.02;;;13.32;;
52180;SDS011;38158;53.338;6.514;2023-04-06T03:30:46;15.70;;;12.27;;
52180;SDS011;38158;53.338;6.514;2023-04-06T03:33:12;20.35;;;12.85;;
52180;SDS011;38158;53.338;6.514;2023-04-06T03:35:37;17.95;;;12.75;;
52180;SDS011;38158;53.338;6.514;2023-04-06T03:38:03;22.55;;;14.68;;
52180;SDS011;38158;53.338;6.514;2023-04-06T03:40:32;22.30;;;12.52;;
52180;SDS011;38158;53.338;6.514;2023-04-06T03:42:58;20.92;;;13.52;;
52180;SDS011;38158;53.338;6.514;2023-04-06T03:45:24;16.95;;;12.52;;
52180;SDS011;38158;53.338;6.514;2023-04-06T03:47:50;19.77;;;13.00;;
52180;SDS011;38158;53.338;6.514;2023-04-06T03:50:15;20.63;;;14.38;;
52180;SDS011;38158;53.338;6.514;2023-04-06T03:52:41;21.52;;;13.55;;
52180;SDS011;38158;53.338;6.514;2023-04-06T03:55:07;21.92;;;13.95;;
52180;SDS011;38158;53.338;6.514;2023-04-06T03:57:33;18.02;;;13.90;;
52180;SDS011;38158;53.338;6.514;2023-04-06T03:59:58;18.05;;;12.90;;
52180;SDS011;38158;53.338;6.514;2023-04-06T04:02:24;18.77;;;13.68;;
52180;SDS011;38158;53.338;6.514;2023-04-06T04:04:50;18.75;;;13.00;;
52180;SDS011;38158;53.338;6.514;2023-04-06T04:07:16;20.05;;;14.02;;
52180;SDS011;38158;53.338;6.514;2023-04-06T04:09:41;17.48;;;13.65;;
52180;SDS011;38158;53.338;6.514;2023-04-06T04:12:07;17.58;;;13.70;;
52180;SDS011;38158;53.338;6.514;2023-04-06T04:14:33;19.88;;;14.27;;
52180;SDS011;38158;53.338;6.514;2023-04-06T04:16:58;18.73;;;13.50;;
52180;SDS011;38158;53.338;6.514;2023-04-06T04:19:24;21.55;;;13.85;;
52180;SDS011;38158;53.338;6.514;2023-04-06T04:21:50;18.08;;;14.23;;
52180;SDS011;38158;53.338;6.514;2023-04-06T04:24:15;20.65;;;13.60;;
52180;SDS011;38158;53.338;6.514;2023-04-06T04:26:41;21.02;;;13.73;;
52180;SDS011;38158;53.338;6.514;2023-04-06T04:29:07;21.70;;;13.85;;
52180;SDS011;38158;53.338;6.514;2023-04-06T04:31:33;22.83;;;14.52;;
52180;SDS011;38158;53.338;6.514;2023-04-06T04:33:59;20.52;;;13.75;;
52180;SDS011;38158;53.338;6.514;2023-04-06T04:36:25;22.47;;;14.70;;
52180;SDS011;38158;53.338;6.514;2023-04-06T04:38:51;25.02;;;14.10;;
52180;SDS011;38158;53.338;6.514;2023-04-06T04:41:17;20.00;;;14.20;;
52180;SDS011;38158;53.338;6.514;2023-04-06T04:43:43;19.50;;;13.70;;
52180;SDS011;38158;53.338;6.514;2023-04-06T04:46:09;20.77;;;13.88;;
52180;SDS011;38158;53.338;6.514;2023-04-06T04:48:35;18.88;;;13.48;;
52180;SDS011;38158;53.338;6.514;2023-04-06T04:51:01;20.42;;;14.15;;
52180;SDS011;38158;53.338;6.514;2023-04-06T04:53:27;20.33;;;13.63;;
52180;SDS011;38158;53.338;6.514;2023-04-06T04:55:52;20.48;;;13.40;;
52180;SDS011;38158;53.338;6.514;2023-04-06T04:58:18;19.33;;;13.75;;
52180;SDS011;38158;53.338;6.514;2023-04-06T05:00:47;22.75;;;13.27;;
52180;SDS011;38158;53.338;6.514;2023-04-06T05:03:31;28.15;;;13.43;;
52180;SDS011;38158;53.338;6.514;2023-04-06T05:05:57;19.98;;;14.48;;
52180;SDS011;38158;53.338;6.514;2023-04-06T05:08:23;21.02;;;13.90;;
52180;SDS011;38158;53.338;6.514;2023-04-06T05:10:49;17.00;;;12.45;;
52180;SDS011;38158;53.338;6.514;2023-04-06T05:13:15;20.45;;;14.25;;
52180;SDS011;38158;53.338;6.514;2023-04-06T05:15:41;22.40;;;13.93;;
52180;SDS011;38158;53.338;6.514;2023-04-06T05:18:07;19.02;;;13.27;;
52180;SDS011;38158;53.338;6.514;2023-04-06T05:20:34;20.40;;;14.13;;
52180;SDS011;38158;53.338;6.514;2023-04-06T05:23:00;18.27;;;13.35;;
52180;SDS011;38158;53.338;6.514;2023-04-06T05:25:26;23.65;;;12.85;;
52180;SDS011;38158;53.338;6.514;2023-04-06T05:27:52;20.85;;;14.15;;
52180;SDS011;38158;53.338;6.514;2023-04-06T05:30:18;16.60;;;12.70;;
52180;SDS011;38158;53.338;6.514;2023-04-06T05:32:44;16.95;;;13.27;;
52180;SDS011;38158;53.338;6.514;2023-04-06T05:35:10;18.10;;;13.05;;
52180;SDS011;38158;53.338;6.514;2023-04-06T05:37:37;24.60;;;14.00;;
52180;SDS011;38158;53.338;6.514;2023-04-06T05:40:03;22.10;;;13.75;;
52180;SDS011;38158;53.338;6.514;2023-04-06T05:42:36;19.73;;;13.07;;
52180;SDS011;38158;53.338;6.514;2023-04-06T05:45:03;18.50;;;13.52;;
52180;SDS011;38158;53.338;6.514;2023-04-06T05:47:30;17.98;;;13.27;;
52180;SDS011;38158;53.338;6.514;2023-04-06T05:49:56;21.02;;;14.57;;
52180;SDS011;38158;53.338;6.514;2023-04-06T05:52:21;19.92;;;13.38;;
52180;SDS011;38158;53.338;6.514;2023-04-06T05:54:47;21.90;;;12.73;;
52180;SDS011;38158;53.338;6.514;2023-04-06T05:57:13;21.33;;;13.30;;
52180;SDS011;38158;53.338;6.514;2023-04-06T05:59:38;19.70;;;13.02;;
52180;SDS011;38158;53.338;6.514;2023-04-06T06:02:04;17.88;;;12.77;;
52180;SDS011;38158;53.338;6.514;2023-04-06T06:04:30;18.45;;;12.57;;
52180;SDS011;38158;53.338;6.514;2023-04-06T06:06:56;18.67;;;13.27;;
52180;SDS011;38158;53.338;6.514;2023-04-06T06:09:22;20.75;;;13.65;;
52180;SDS011;38158;53.338;6.514;2023-04-06T06:11:48;17.48;;;12.73;;
52180;SDS011;38158;53.338;6.514;2023-04-06T06:14:14;17.08;;;12.30;;
52180;SDS011;38158;53.338;6.514;2023-04-06T06:16:40;17.15;;;11.95;;
52180;SDS011;38158;53.338;6.514;2023-04-06T06:19:06;20.00;;;12.05;;
52180;SDS011;38158;53.338;6.514;2023-04-06T06:21:31;16.17;;;12.10;;
52180;SDS011;38158;53.338;6.514;2023-04-06T06:23:57;15.93;;;11.18;;
52180;SDS011;38158;53.338;6.514;2023-04-06T06:26:23;18.35;;;12.18;;
52180;SDS011;38158;53.338;6.514;2023-04-06T06:28:48;16.67;;;11.30;;
52180;SDS011;38158;53.338;6.514;2023-04-06T06:31:14;21.02;;;12.93;;
52180;SDS011;38158;53.338;6.514;2023-04-06T06:33:40;18.23;;;11.65;;
52180;SDS011;38158;53.338;6.514;2023-04-06T06:36:06;18.40;;;11.00;;
52180;SDS011;38158;53.338;6.514;2023-04-06T06:38:32;15.55;;;11.18;;
52180;SDS011;38158;53.338;6.514;2023-04-06T06:40:57;19.38;;;10.90;;
52180;SDS011;38158;53.338;6.514;2023-04-06T06:43:23;16.20;;;11.20;;
52180;SDS011;38158;53.338;6.514;2023-04-06T06:45:49;16.60;;;10.93;;
52180;SDS011;38158;53.338;6.514;2023-04-06T06:48:15;18.67;;;10.93;;
52180;SDS011;38158;53.338;6.514;2023-04-06T06:50:40;17.90;;;11.43;;
52180;SDS011;38158;53.338;6.514;2023-04-06T06:53:06;15.40;;;10.80;;
52180;SDS011;38158;53.338;6.514;2023-04-06T06:55:32;17.95;;;11.25;;
52180;SDS011;38158;53.338;6.514;2023-04-06T06:57:57;16.02;;;10.23;;
52180;SDS011;38158;53.338;6.514;2023-04-06T07:00:23;17.25;;;11.27;;
52180;SDS011;38158;53.338;6.514;2023-04-06T07:02:49;15.35;;;10.27;;
52180;SDS011;38158;53.338;6.514;2023-04-06T07:05:15;18.35;;;10.15;;
52180;SDS011;38158;53.338;6.514;2023-04-06T07:07:41;15.75;;;10.57;;
52180;SDS011;38158;53.338;6.514;2023-04-06T07:10:07;16.00;;;9.50;;
52180;SDS011;38158;53.338;6.514;2023-04-06T07:12:33;12.63;;;9.57;;
52180;SDS011;38158;53.338;6.514;2023-04-06T07:14:59;16.00;;;10.05;;
52180;SDS011;38158;53.338;6.514;2023-04-06T07:17:25;15.30;;;10.25;;
52180;SDS011;38158;53.338;6.514;2023-04-06T07:19:51;14.57;;;9.75;;
52180;SDS011;38158;53.338;6.514;2023-04-06T07:22:17;14.38;;;9.95;;
52180;SDS011;38158;53.338;6.514;2023-04-06T07:24:42;13.90;;;8.77;;
52180;SDS011;38158;53.338;6.514;2023-04-06T07:27:08;15.30;;;10.05;;
52180;SDS011;38158;53.338;6.514;2023-04-06T07:29:34;14.43;;;9.75;;
52180;SDS011;38158;53.338;6.514;2023-04-06T07:32:00;13.88;;;9.43;;
52180;SDS011;38158;53.338;6.514;2023-04-06T07:34:25;16.30;;;10.50;;
52180;SDS011;38158;53.338;6.514;2023-04-06T07:36:51;14.30;;;9.80;;
52180;SDS011;38158;53.338;6.514;2023-04-06T07:39:18;22.08;;;10.77;;
52180;SDS011;38158;53.338;6.514;2023-04-06T07:41:44;14.52;;;9.55;;
52180;SDS011;38158;53.338;6.514;2023-04-06T07:44:10;15.60;;;9.55;;
52180;SDS011;38158;53.338;6.514;2023-04-06T07:46:36;13.30;;;9.15;;
52180;SDS011;38158;53.338;6.514;2023-04-06T07:49:02;16.20;;;10.10;;
52180;SDS011;38158;53.338;6.514;2023-04-06T07:51:28;20.42;;;9.98;;
52180;SDS011;38158;53.338;6.514;2023-04-06T07:53:53;15.75;;;9.30;;
52180;SDS011;38158;53.338;6.514;2023-04-06T07:56:19;15.32;;;9.70;;
52180;SDS011;38158;53.338;6.514;2023-04-06T07:58:46;15.20;;;9.20;;
52180;SDS011;38158;53.338;6.514;2023-04-06T08:01:12;12.13;;;8.90;;
52180;SDS011;38158;53.338;6.514;2023-04-06T08:03:38;14.07;;;9.38;;
52180;SDS011;38158;53.338;6.514;2023-04-06T08:06:04;15.35;;;9.38;;
52180;SDS011;38158;53.338;6.514;2023-04-06T08:08:30;15.50;;;9.13;;
52180;SDS011;38158;53.338;6.514;2023-04-06T08:10:56;18.95;;;9.63;;
52180;SDS011;38158;53.338;6.514;2023-04-06T08:13:22;14.60;;;9.10;;
52180;SDS011;38158;53.338;6.514;2023-04-06T08:15:47;14.10;;;9.25;;
52180;SDS011;38158;53.338;6.514;2023-04-06T08:18:13;12.95;;;9.15;;
52180;SDS011;38158;53.338;6.514;2023-04-06T08:20:39;13.88;;;8.55;;
52180;SDS011;38158;53.338;6.514;2023-04-06T08:23:05;12.02;;;8.23;;
52180;SDS011;38158;53.338;6.514;2023-04-06T08:25:33;14.70;;;8.60;;
52180;SDS011;38158;53.338;6.514;2023-04-06T08:28:00;12.05;;;8.85;;
52180;SDS011;38158;53.338;6.514;2023-04-06T08:30:26;16.10;;;8.48;;
52180;SDS011;38158;53.338;6.514;2023-04-06T08:32:51;13.65;;;8.82;;
52180;SDS011;38158;53.338;6.514;2023-04-06T08:35:17;15.98;;;8.18;;
52180;SDS011;38158;53.338;6.514;2023-04-06T08:37:43;12.48;;;8.18;;
52180;SDS011;38158;53.338;6.514;2023-04-06T08:40:09;14.50;;;8.13;;
52180;SDS011;38158;53.338;6.514;2023-04-06T08:42:39;13.73;;;9.10;;
52180;SDS011;38158;53.338;6.514;2023-04-06T08:45:06;14.98;;;8.43;;
52180;SDS011;38158;53.338;6.514;2023-04-06T08:47:34;16.60;;;7.95;;
52180;SDS011;38158;53.338;6.514;2023-04-06T08:50:02;13.80;;;8.77;;
52180;SDS011;38158;53.338;6.514;2023-04-06T08:52:29;14.30;;;8.65;;
52180;SDS011;38158;53.338;6.514;2023-04-06T08:54:58;12.98;;;8.57;;
52180;SDS011;38158;53.338;6.514;2023-04-06T08:57:24;17.92;;;9.43;;
52180;SDS011;38158;53.338;6.514;2023-04-06T08:59:51;10.75;;;7.90;;
52180;SDS011;38158;53.338;6.514;2023-04-06T09:02:18;14.88;;;8.93;;
52180;SDS011;38158;53.338;6.514;2023-04-06T09:04:45;14.07;;;8.80;;
52180;SDS011;38158;53.338;6.514;2023-04-06T09:07:14;12.20;;;7.38;;
52180;SDS011;38158;53.338;6.514;2023-04-06T09:09:40;12.68;;;8.70;;
52180;SDS011;38158;53.338;6.514;2023-04-06T09:12:21;11.65;;;7.95;;
52180;SDS011;38158;53.338;6.514;2023-04-06T09:14:51;15.93;;;8.38;;
52180;SDS011;38158;53.338;6.514;2023-04-06T09:17:24;13.07;;;7.90;;
52180;SDS011;38158;53.338;6.514;2023-04-06T09:19:54;14.45;;;8.57;;
52180;SDS011;38158;53.338;6.514;2023-04-06T09:22:20;15.65;;;9.15;;
52180;SDS011;38158;53.338;6.514;2023-04-06T09:24:47;13.45;;;7.97;;
52180;SDS011;38158;53.338;6.514;2023-04-06T09:27:14;13.45;;;7.63;;
52180;SDS011;38158;53.338;6.514;2023-04-06T09:29:41;13.02;;;7.68;;
52180;SDS011;38158;53.338;6.514;2023-04-06T09:32:08;13.25;;;8.90;;
52180;SDS011;38158;53.338;6.514;2023-04-06T09:34:41;13.27;;;8.25;;
52180;SDS011;38158;53.338;6.514;2023-04-06T09:37:14;14.30;;;8.10;;
52180;SDS011;38158;53.338;6.514;2023-04-06T09:39:43;11.98;;;7.47;;
52180;SDS011;38158;53.338;6.514;2023-04-06T09:42:11;12.43;;;7.88;;
52180;SDS011;38158;53.338;6.514;2023-04-06T09:44:50;16.05;;;8.48;;
52180;SDS011;38158;53.338;6.514;2023-04-06T09:47:16;14.10;;;8.43;;
52180;SDS011;38158;53.338;6.514;2023-04-06T09:49:43;16.30;;;9.27;;
52180;SDS011;38158;53.338;6.514;2023-04-06T09:52:11;14.35;;;8.15;;
52180;SDS011;38158;53.338;6.514;2023-04-06T09:54:38;17.58;;;8.45;;
52180;SDS011;38158;53.338;6.514;2023-04-06T09:57:11;13.75;;;8.98;;
52180;SDS011;38158;53.338;6.514;2023-04-06T10:02:24;12.75;;;8.80;;
52180;SDS011;38158;53.338;6.514;2023-04-06T10:04:59;15.93;;;9.52;;
52180;SDS011;38158;53.338;6.514;2023-04-06T10:07:34;14.18;;;9.70;;
52180;SDS011;38158;53.338;6.514;2023-04-06T10:10:02;16.05;;;9.68;;
52180;SDS011;38158;53.338;6.514;2023-04-06T10:12:28;17.95;;;9.43;;
52180;SDS011;38158;53.338;6.514;2023-04-06T10:14:54;14.90;;;9.43;;
52180;SDS011;38158;53.338;6.514;2023-04-06T10:17:21;15.90;;;10.30;;
52180;SDS011;38158;53.338;6.514;2023-04-06T10:19:54;15.00;;;9.95;;
52180;SDS011;38158;53.338;6.514;2023-04-06T10:22:49;17.80;;;10.10;;
52180;SDS011;38158;53.338;6.514;2023-04-06T10:25:31;15.55;;;10.10;;
52180;SDS011;38158;53.338;6.514;2023-04-06T10:28:01;17.52;;;10.05;;
52180;SDS011;38158;53.338;6.514;2023-04-06T10:30:31;16.25;;;10.45;;
52180;SDS011;38158;53.338;6.514;2023-04-06T10:35:23;16.63;;;10.43;;
52180;SDS011;38158;53.338;6.514;2023-04-06T10:38:01;15.95;;;10.35;;
52180;SDS011;38158;53.338;6.514;2023-04-06T10:40:28;16.88;;;9.68;;
52180;SDS011;38158;53.338;6.514;2023-04-06T10:43:06;16.35;;;9.77;;
52180;SDS011;38158;53.338;6.514;2023-04-06T10:45:33;16.40;;;10.55;;
52180;SDS011;38158;53.338;6.514;2023-04-06T10:48:00;18.02;;;11.10;;
52180;SDS011;38158;53.338;6.514;2023-04-06T10:50:37;18.00;;;11.15;;
52180;SDS011;38158;53.338;6.514;2023-04-06T10:53:05;15.88;;;10.60;;
52180;SDS011;38158;53.338;6.514;2023-04-06T10:55:31;18.10;;;11.40;;
52180;SDS011;38158;53.338;6.514;2023-04-06T10:57:57;19.90;;;11.32;;
52180;SDS011;38158;53.338;6.514;2023-04-06T11:00:23;17.38;;;11.35;;
52180;SDS011;38158;53.338;6.514;2023-04-06T11:02:49;18.60;;;11.82;;
52180;SDS011;38158;53.338;6.514;2023-04-06T11:05:14;18.33;;;12.07;;
52180;SDS011;38158;53.338;6.514;2023-04-06T11:07:40;20.33;;;11.95;;
52180;SDS011;38158;53.338;6.514;2023-04-06T11:10:07;19.67;;;11.83;;
52180;SDS011;38158;53.338;6.514;2023-04-06T11:12:33;18.83;;;12.82;;
52180;SDS011;38158;53.338;6.514;2023-04-06T11:15:00;19.92;;;12.15;;
52180;SDS011;38158;53.338;6.514;2023-04-06T11:17:29;24.85;;;13.35;;
52180;SDS011;38158;53.338;6.514;2023-04-06T11:19:56;18.08;;;12.25;;
52180;SDS011;38158;53.338;6.514;2023-04-06T11:22:23;25.40;;;13.00;;
52180;SDS011;38158;53.338;6.514;2023-04-06T11:24:49;22.63;;;13.82;;
52180;SDS011;38158;53.338;6.514;2023-04-06T11:27:15;21.75;;;13.20;;
52180;SDS011;38158;53.338;6.514;2023-04-06T11:29:42;22.63;;;13.73;;
52180;SDS011;38158;53.338;6.514;2023-04-06T11:32:11;21.98;;;13.90;;
52180;SDS011;38158;53.338;6.514;2023-04-06T11:34:37;24.60;;;14.73;;
52180;SDS011;38158;53.338;6.514;2023-04-06T11:37:07;21.73;;;13.95;;
52180;SDS011;38158;53.338;6.514;2023-04-06T11:39:42;21.17;;;14.43;;
52180;SDS011;38158;53.338;6.514;2023-04-06T11:42:22;24.80;;;15.45;;
52180;SDS011;38158;53.338;6.514;2023-04-06T11:44:50;23.55;;;15.63;;
52180;SDS011;38158;53.338;6.514;2023-04-06T11:47:18;24.42;;;14.90;;
52180;SDS011;38158;53.338;6.514;2023-04-06T11:49:45;28.83;;;16.83;;
52180;SDS011;38158;53.338;6.514;2023-04-06T11:52:19;26.10;;;17.33;;
52180;SDS011;38158;53.338;6.514;2023-04-06T11:54:50;29.63;;;19.40;;
52180;SDS011;38158;53.338;6.514;2023-04-06T11:57:17;31.50;;;18.52;;
52180;SDS011;38158;53.338;6.514;2023-04-06T11:59:43;34.33;;;19.25;;
52180;SDS011;38158;53.338;6.514;2023-04-06T12:02:10;35.10;;;21.50;;
52180;SDS011;38158;53.338;6.514;2023-04-06T12:04:36;33.20;;;20.88;;
52180;SDS011;38158;53.338;6.514;2023-04-06T12:07:02;31.58;;;20.70;;
52180;SDS011;38158;53.338;6.514;2023-04-06T12:09:28;33.28;;;20.48;;
52180;SDS011;38158;53.338;6.514;2023-04-06T12:11:54;31.38;;;20.63;;
52180;SDS011;38158;53.338;6.514;2023-04-06T12:14:21;31.17;;;19.95;;
52180;SDS011;38158;53.338;6.514;2023-04-06T12:16:46;32.40;;;21.63;;
52180;SDS011;38158;53.338;6.514;2023-04-06T12:19:12;31.67;;;20.35;;
52180;SDS011;38158;53.338;6.514;2023-04-06T12:21:38;32.00;;;20.73;;
52180;SDS011;38158;53.338;6.514;2023-04-06T12:24:04;32.25;;;21.20;;
52180;SDS011;38158;53.338;6.514;2023-04-06T12:26:30;30.08;;;19.80;;
52180;SDS011;38158;53.338;6.514;2023-04-06T12:28:56;33.35;;;20.75;;
52180;SDS011;38158;53.338;6.514;2023-04-06T12:31:29;29.55;;;19.98;;
52180;SDS011;38158;53.338;6.514;2023-04-06T12:33:55;33.20;;;19.23;;
52180;SDS011;38158;53.338;6.514;2023-04-06T12:36:21;32.72;;;19.30;;
52180;SDS011;38158;53.338;6.514;2023-04-06T12:38:47;28.85;;;19.65;;
52180;SDS011;38158;53.338;6.514;2023-04-06T12:41:13;34.35;;;19.33;;
52180;SDS011;38158;53.338;6.514;2023-04-06T12:43:40;32.27;;;19.57;;
52180;SDS011;38158;53.338;6.514;2023-04-06T12:46:06;30.33;;;20.02;;
52180;SDS011;38158;53.338;6.514;2023-04-06T12:48:32;29.50;;;19.50;;
52180;SDS011;38158;53.338;6.514;2023-04-06T12:50:59;29.35;;;19.20;;
52180;SDS011;38158;53.338;6.514;2023-04-06T12:53:26;32.88;;;19.88;;
52180;SDS011;38158;53.338;6.514;2023-04-06T12:55:53;33.30;;;19.98;;
52180;SDS011;38158;53.338;6.514;2023-04-06T12:58:20;33.05;;;20.08;;
52180;SDS011;38158;53.338;6.514;2023-04-06T13:00:50;30.77;;;20.23;;
52180;SDS011;38158;53.338;6.514;2023-04-06T13:03:16;33.40;;;20.55;;
52180;SDS011;38158;53.338;6.514;2023-04-06T13:05:49;28.80;;;18.55;;
52180;SDS011;38158;53.338;6.514;2023-04-06T13:08:16;31.65;;;19.98;;
52180;SDS011;38158;53.338;6.514;2023-04-06T13:13:09;29.45;;;19.55;;
52180;SDS011;38158;53.338;6.514;2023-04-06T13:15:35;33.03;;;19.52;;
52180;SDS011;38158;53.338;6.514;2023-04-06T13:18:01;32.15;;;20.83;;
52180;SDS011;38158;53.338;6.514;2023-04-06T13:20:27;31.63;;;20.80;;
52180;SDS011;38158;53.338;6.514;2023-04-06T13:22:53;31.80;;;19.98;;
52180;SDS011;38158;53.338;6.514;2023-04-06T13:25:19;25.42;;;16.50;;
52180;SDS011;38158;53.338;6.514;2023-04-06T13:27:45;28.75;;;19.30;;
52180;SDS011;38158;53.338;6.514;2023-04-06T13:30:13;30.42;;;18.42;;
52180;SDS011;38158;53.338;6.514;2023-04-06T13:35:05;29.90;;;19.45;;
52180;SDS011;38158;53.338;6.514;2023-04-06T13:37:32;27.80;;;18.73;;
52180;SDS011;38158;53.338;6.514;2023-04-06T13:39:58;28.17;;;19.40;;
52180;SDS011;38158;53.338;6.514;2023-04-06T13:42:24;29.83;;;19.30;;
52180;SDS011;38158;53.338;6.514;2023-04-06T13:44:50;30.08;;;19.08;;
52180;SDS011;38158;53.338;6.514;2023-04-06T13:47:16;30.50;;;19.95;;
52180;SDS011;38158;53.338;6.514;2023-04-06T13:49:42;31.63;;;19.98;;
52180;SDS011;38158;53.338;6.514;2023-04-06T13:52:08;29.67;;;19.63;;
52180;SDS011;38158;53.338;6.514;2023-04-06T13:54:35;27.90;;;19.15;;
52180;SDS011;38158;53.338;6.514;2023-04-06T13:57:01;27.95;;;18.88;;
52180;SDS011;38158;53.338;6.514;2023-04-06T13:59:36;31.55;;;20.58;;
52180;SDS011;38158;53.338;6.514;2023-04-06T14:02:03;31.42;;;19.05;;
52180;SDS011;38158;53.338;6.514;2023-04-06T14:04:30;28.40;;;19.08;;
52180;SDS011;38158;53.338;6.514;2023-04-06T14:06:57;31.08;;;19.83;;
52180;SDS011;38158;53.338;6.514;2023-04-06T14:09:23;30.83;;;18.35;;
52180;SDS011;38158;53.338;6.514;2023-04-06T14:11:49;28.65;;;19.27;;
52180;SDS011;38158;53.338;6.514;2023-04-06T14:14:16;22.33;;;15.03;;
52180;SDS011;38158;53.338;6.514;2023-04-06T14:16:42;18.67;;;12.18;;
52180;SDS011;38158;53.338;6.514;2023-04-06T14:19:12;21.52;;;13.23;;
52180;SDS011;38158;53.338;6.514;2023-04-06T14:21:39;18.38;;;12.27;;
52180;SDS011;38158;53.338;6.514;2023-04-06T14:24:08;17.23;;;11.25;;
52180;SDS011;38158;53.338;6.514;2023-04-06T14:26:37;18.40;;;11.40;;
52180;SDS011;38158;53.338;6.514;2023-04-06T14:29:04;21.08;;;13.10;;
52180;SDS011;38158;53.338;6.514;2023-04-06T14:31:31;18.10;;;11.02;;
52180;SDS011;38158;53.338;6.514;2023-04-06T14:33:57;20.00;;;11.83;;
52180;SDS011;38158;53.338;6.514;2023-04-06T14:36:23;18.80;;;11.13;;
52180;SDS011;38158;53.338;6.514;2023-04-06T14:38:49;19.85;;;12.88;;